Kezdőlap
METAR-TAF:

METAR-TAF

Repülőterek :

Majuro, Marshall-szigetek

földrajzi szélesség: 07-04N, földrajzi hosszúság: 171-17E, magasság: 2 m

Jelenlegi meteorológiai megfigyelések

A jelentés 39 perccel ezelõtt készült, 05:56 UTC
Északkeleti szél 15 kt
Hőmérséklet 30°C
Páratartalom 75%
Légköri nyomás 1008 hPa
Látótávolság: 24.1 km
Kevés felhő 1500 lábon
Szórványos felhőzet 5000 lábon
Szakadozott felhőzet 12000 lábon
Borult 30000 lábon

METAR: PKMJ 180556Z 05015KT 15SM FEW015 SCT050 BKN120 OVC300 30/25 A2977 RMK FIRST

Idő: 18:35 (06:35 UTC)

Előrejelzés

A jelentés 1 órával és 12 perccel ezelõtt készült, 05:23 UTC
Az előrejelzés 18-én 06 óra UTC és 19-én 06 óra UTC között érvényes
Északkeleti szél 12 kt
Látótávolság: 10 km
Kevés felhő 1500 lábon
Szórványos felhőzet 5000 lábon
Szakadozott felhőzet 12000 lábon
Záporok a közelben

TAF: PKMJ 180523Z 1806/1906 05012KT P6SM VCSH FEW015 SCT050 BKN120

Meteorológiai megfigyelések és előrejelzések több, mint 4000 repülőtéren (METAR és TAF jelentéseket).

A térképen piros és sárga pontok jelzik az elérhető meteorológiai állomásokat.

Mozgassa az egeret a pont fölött, hogy megjelenjen az állomás neve.

Azután kattintson az időjárási megfigyelések és előrejelzések megtekintéséhez.

A térkép megváltoztatása: kattintson a fekete keresztel jelölt zöld gombra ráközelítéshez, a vonallal jelölt zöld gombra távolításhoz, vagy a zöld nyilakra a szomszédos térképek eléréséhez.


METAR-TAF: